JAL903 RJTT-ROAH
Flight info
| Callsign | JAL903 |
|---|---|
| Flight time | N/A |
| Altitude | 38000 |
| Route | LAXAS Y56 TOHME Y54 KOHWA Y12 AYANO Y128 LAXEL Y52 TONAR Y525 IHEYA |
| Aircraft | B77W/M-VGDW/C |
Departure
| Time | N/A |
|---|---|
| Airport | Tokyo Haneda International Airport (RJTT) |
Arrival
| Time | 2026-04-28 11:09 |
|---|---|
| Airport | Naha International Airport (ROAH) |
| Time | Latitude | Longitude | Altitude | Speed | Heading |
|---|---|---|---|---|---|
| 2026-04-28 10:50 | 27.18864 | 128.23554 | 17519 ft | 327 kts | 241° |
| 2026-04-28 10:50 | 27.17699 | 128.21355 | 17133 ft | 326 kts | 241° |
| 2026-04-28 10:51 | 27.16547 | 128.19181 | 16741 ft | 324 kts | 241° |
| 2026-04-28 10:51 | 27.15391 | 128.17001 | 16372 ft | 323 kts | 241° |
| 2026-04-28 10:51 | 27.14250 | 128.14852 | 15995 ft | 321 kts | 241° |
| 2026-04-28 10:51 | 27.13103 | 128.12692 | 15640 ft | 320 kts | 241° |
| 2026-04-28 10:52 | 27.11962 | 128.10545 | 15287 ft | 319 kts | 241° |
| 2026-04-28 10:52 | 27.10825 | 128.08418 | 14915 ft | 318 kts | 240° |
| 2026-04-28 10:52 | 27.09681 | 128.06286 | 14566 ft | 317 kts | 240° |
| 2026-04-28 10:52 | 27.08543 | 128.04165 | 14222 ft | 317 kts | 240° |
| 2026-04-28 10:53 | 27.07408 | 128.02049 | 13887 ft | 316 kts | 240° |
| 2026-04-28 10:53 | 27.06289 | 127.99965 | 13508 ft | 315 kts | 240° |
| 2026-04-28 10:53 | 27.05163 | 127.97864 | 13150 ft | 313 kts | 240° |
| 2026-04-28 10:53 | 27.04041 | 127.95775 | 12795 ft | 312 kts | 240° |
| 2026-04-28 10:54 | 27.02911 | 127.93674 | 12450 ft | 311 kts | 240° |
| 2026-04-28 10:54 | 27.01801 | 127.91624 | 12092 ft | 309 kts | 238° |
| 2026-04-28 10:54 | 27.00328 | 127.89873 | 11718 ft | 310 kts | 217° |
| 2026-04-28 10:54 | 26.98467 | 127.88702 | 11605 ft | 303 kts | 210° |
| 2026-04-28 10:55 | 26.96608 | 127.87658 | 11482 ft | 295 kts | 209° |
| 2026-04-28 10:55 | 26.94792 | 127.86647 | 11335 ft | 289 kts | 209° |
| 2026-04-28 10:55 | 26.92995 | 127.85642 | 11081 ft | 286 kts | 209° |
| 2026-04-28 10:55 | 26.91221 | 127.84645 | 10779 ft | 286 kts | 209° |
| 2026-04-28 10:56 | 26.89467 | 127.83654 | 10472 ft | 286 kts | 209° |
| 2026-04-28 10:56 | 26.87671 | 127.82637 | 10191 ft | 285 kts | 209° |
| 2026-04-28 10:56 | 26.85923 | 127.81645 | 9920 ft | 284 kts | 209° |
| 2026-04-28 10:56 | 26.84156 | 127.80641 | 9615 ft | 283 kts | 209° |
| 2026-04-28 10:57 | 26.82405 | 127.79646 | 9327 ft | 282 kts | 209° |
| 2026-04-28 10:57 | 26.80684 | 127.78667 | 8887 ft | 276 kts | 209° |
| 2026-04-28 10:57 | 26.78968 | 127.77691 | 8284 ft | 278 kts | 208° |
| 2026-04-28 10:57 | 26.77239 | 127.76708 | 7767 ft | 277 kts | 208° |
| 2026-04-28 10:58 | 26.75642 | 127.75799 | 7314 ft | 275 kts | 208° |
| 2026-04-28 10:58 | 26.73943 | 127.74834 | 6847 ft | 273 kts | 208° |
| 2026-04-28 10:58 | 26.72258 | 127.73876 | 6357 ft | 271 kts | 208° |
| 2026-04-28 10:58 | 26.70588 | 127.72928 | 5856 ft | 269 kts | 208° |
| 2026-04-28 10:59 | 26.68918 | 127.71981 | 5327 ft | 269 kts | 208° |
| 2026-04-28 10:59 | 26.67248 | 127.71033 | 4819 ft | 268 kts | 208° |
| 2026-04-28 10:59 | 26.65576 | 127.70086 | 4308 ft | 271 kts | 208° |
| 2026-04-28 10:59 | 26.63901 | 127.69138 | 4089 ft | 266 kts | 207° |
| 2026-04-28 11:00 | 26.62447 | 127.68317 | 3934 ft | 253 kts | 207° |
| 2026-04-28 11:00 | 26.60907 | 127.67446 | 3621 ft | 244 kts | 207° |
| 2026-04-28 11:00 | 26.59406 | 127.66597 | 3282 ft | 244 kts | 207° |
| 2026-04-28 11:00 | 26.57897 | 127.65743 | 3098 ft | 241 kts | 207° |
| 2026-04-28 11:01 | 26.56404 | 127.64899 | 2863 ft | 239 kts | 207° |
| 2026-04-28 11:01 | 26.54925 | 127.64063 | 2591 ft | 239 kts | 207° |
| 2026-04-28 11:01 | 26.53452 | 127.63231 | 2358 ft | 237 kts | 207° |
| 2026-04-28 11:01 | 26.51995 | 127.62408 | 2207 ft | 230 kts | 207° |
| 2026-04-28 11:02 | 26.50599 | 127.61621 | 2154 ft | 218 kts | 205° |
| 2026-04-28 11:02 | 26.49178 | 127.61269 | 2083 ft | 216 kts | 175° |
| 2026-04-28 11:02 | 26.47695 | 127.61519 | 2038 ft | 215 kts | 169° |
| 2026-04-28 11:02 | 26.46228 | 127.61779 | 2010 ft | 212 kts | 170° |
| 2026-04-28 11:03 | 26.44775 | 127.62036 | 2004 ft | 207 kts | 169° |
| 2026-04-28 11:03 | 26.43376 | 127.62284 | 2002 ft | 198 kts | 170° |
| 2026-04-28 11:03 | 26.42021 | 127.62524 | 2057 ft | 197 kts | 170° |
| 2026-04-28 11:03 | 26.40914 | 127.62722 | 2018 ft | 194 kts | 169° |
| 2026-04-28 11:04 | 26.39635 | 127.62949 | 2012 ft | 191 kts | 169° |
| 2026-04-28 11:04 | 26.38323 | 127.63182 | 1982 ft | 196 kts | 170° |
| 2026-04-28 11:04 | 26.36951 | 127.63424 | 1750 ft | 196 kts | 170° |
| 2026-04-28 11:04 | 26.35651 | 127.63652 | 1453 ft | 181 kts | 170° |
| 2026-04-28 11:05 | 26.34481 | 127.63860 | 1280 ft | 163 kts | 170° |
| 2026-04-28 11:05 | 26.33386 | 127.63961 | 1212 ft | 153 kts | 176° |
| 2026-04-28 11:05 | 26.32317 | 127.64006 | 1269 ft | 159 kts | 176° |
| 2026-04-28 11:05 | 26.31206 | 127.64054 | 1238 ft | 160 kts | 176° |
| 2026-04-28 11:06 | 26.30095 | 127.64102 | 1228 ft | 159 kts | 177° |
| 2026-04-28 11:06 | 26.28991 | 127.64148 | 1215 ft | 159 kts | 177° |
| 2026-04-28 11:06 | 26.27884 | 127.64201 | 1202 ft | 160 kts | 176° |
| 2026-04-28 11:06 | 26.26794 | 127.64252 | 1183 ft | 154 kts | 176° |
| 2026-04-28 11:07 | 26.25739 | 127.64307 | 1159 ft | 153 kts | 175° |
| 2026-04-28 11:07 | 26.25025 | 127.64345 | 1003 ft | 156 kts | 177° |
| 2026-04-28 11:07 | 26.23712 | 127.64359 | 664 ft | 146 kts | 179° |
| 2026-04-28 11:07 | 26.23066 | 127.64358 | 485 ft | 137 kts | 177° |
| 2026-04-28 11:08 | 26.21831 | 127.64463 | 253 ft | 134 kts | 174° |
| 2026-04-28 11:08 | 26.20899 | 127.64525 | 59 ft | 133 kts | 175° |
| 2026-04-28 11:08 | 26.20167 | 127.64561 | 26 ft | 113 kts | 179° |
| 2026-04-28 11:08 | 26.19920 | 127.64571 | 20 ft | 99 kts | 177° |
| 2026-04-28 11:09 | 26.19295 | 127.64602 | 24 ft | 52 kts | 177° |
| 2026-04-28 11:09 | 26.19103 | 127.64610 | 25 ft | 39 kts | 178° |
| 2026-04-28 11:09 | 26.18906 | 127.64666 | 24 ft | 21 kts | 154° |
| 2026-04-28 11:09 | 26.18817 | 127.64731 | 26 ft | 7 kts | 129° |